Time;durP1;ratioP1;P1;durP2;ratioP2;P2;SDS_P1;SDS_P2;PMS_P1;PMS_P2;Temp;Humidity;BMP_temperature;BMP_pressure;BME280_temperature;BME280_humidity;BME280_pressure;Samples;Min_cycle;Max_cycle;Signal;HPM_P1;HPM_P2
2021/01/08 00:01:46;;;;;;;23.38;10.65;;;2.50;99.90;;;;;;5033759;28;20038;-78
2021/01/08 00:04:12;;;;;;;17.25;8.93;;;;;;;;;;5028499;28;20026;-79
2021/01/08 00:06:38;;;;;;;19.23;9.00;;;;;;;;;;5055709;28;20102;-81
2021/01/08 00:09:04;;;;;;;19.08;9.90;;;2.50;99.90;;;;;;5033809;28;20062;-81
2021/01/08 00:11:35;;;;;;;18.17;9.32;;;;;;;;;;5043136;28;20076;-79
2021/01/08 00:14:01;;;;;;;22.13;9.20;;;;;;;;;;5029158;28;20033;-81
2021/01/08 00:16:27;;;;;;;19.67;9.93;;;2.60;99.90;;;;;;5030961;28;20196;-81
2021/01/08 00:18:52;;;;;;;19.00;9.88;;;2.60;99.90;;;;;;5013061;28;20105;-84
2021/01/08 00:21:18;;;;;;;23.90;11.38;;;2.60;99.90;;;;;;5014341;28;20055;-79
2021/01/08 00:23:44;;;;;;;19.77;9.55;;;2.90;99.90;;;;;;5010505;28;20043;-79
2021/01/08 00:26:09;;;;;;;17.48;9.10;;;2.60;99.90;;;;;;5029737;28;20499;-82
2021/01/08 00:28:35;;;;;;;22.08;10.15;;;2.70;99.90;;;;;;5030290;28;20088;-81
2021/01/08 00:31:01;;;;;;;20.85;10.50;;;2.60;99.90;;;;;;5030584;28;20038;-79
2021/01/08 00:33:27;;;;;;;18.98;10.13;;;2.60;99.90;;;;;;5028625;28;20045;-80
2021/01/08 00:35:53;;;;;;;19.10;9.70;;;2.50;99.90;;;;;;5030336;28;20050;-81
2021/01/08 00:38:19;;;;;;;20.67;10.35;;;3.30;99.90;;;;;;5032878;28;20044;-80
2021/01/08 00:40:45;;;;;;;21.10;10.20;;;2.40;99.90;;;;;;5035011;28;20065;-81
2021/01/08 00:43:11;;;;;;;22.10;10.57;;;2.40;99.90;;;;;;5039104;28;20096;-79
2021/01/08 00:45:37;;;;;;;21.02;11.02;;;2.40;99.90;;;;;;5031000;28;20037;-84
2021/01/08 00:48:03;;;;;;;19.10;10.13;;;2.30;99.90;;;;;;4990945;28;20088;-80
2021/01/08 00:50:29;;;;;;;21.17;10.20;;;;;;;;;;5010309;28;20066;-81
2021/01/08 00:52:54;;;;;;;21.85;10.70;;;2.40;99.90;;;;;;5032654;28;20095;-81
2021/01/08 00:55:20;;;;;;;20.10;10.10;;;2.40;99.90;;;;;;5023751;28;20071;-81
2021/01/08 00:57:46;;;;;;;23.95;11.43;;;2.40;99.90;;;;;;5039050;28;20396;-81
2021/01/08 01:00:13;;;;;;;21.63;10.75;;;2.10;99.90;;;;;;5036015;28;20038;-80
2021/01/08 01:02:39;;;;;;;22.73;9.82;;;;;;;;;;5029463;28;20033;-82
2021/01/08 01:05:05;;;;;;;21.67;11.20;;;2.30;99.90;;;;;;5032454;28;20043;-81
2021/01/08 01:07:31;;;;;;;22.45;10.90;;;;;;;;;;5029795;28;20038;-82
2021/01/08 01:09:58;;;;;;;25.58;10.45;;;;;;;;;;5026396;28;20084;-80
2021/01/08 01:12:24;;;;;;;21.75;10.43;;;2.40;99.90;;;;;;5032604;28;20030;-81
2021/01/08 01:14:50;;;;;;;20.20;10.40;;;;;;;;;;5034405;28;20060;-80
2021/01/08 01:17:16;;;;;;;21.58;10.10;;;;;;;;;;5027973;28;20026;-81
2021/01/08 01:19:42;;;;;;;18.92;9.82;;;;;;;;;;5027976;28;20499;-81
2021/01/08 01:22:08;;;;;;;19.85;10.15;;;;;;;;;;5046893;28;20046;-82
2021/01/08 01:24:34;;;;;;;18.80;9.95;;;;;;;;;;5030026;28;20067;-79
2021/01/08 01:27:00;;;;;;;21.48;10.55;;;;;;;;;;5034202;28;20380;-80
2021/01/08 01:29:26;;;;;;;21.70;9.88;;;2.30;99.90;;;;;;5032261;28;20048;-82
2021/01/08 01:31:53;;;;;;;18.00;8.70;;;;;;;;;;5012667;28;20049;-82
2021/01/08 01:34:19;;;;;;;16.98;8.50;;;;;;;;;;5027643;28;20522;-80
2021/01/08 01:36:45;;;;;;;17.13;8.20;;;;;;;;;;5033233;28;20041;-80
2021/01/08 01:39:12;;;;;;;13.88;7.82;;;2.50;99.90;;;;;;5028518;28;20558;-81
2021/01/08 01:41:40;;;;;;;17.02;8.43;;;;;;;;;;5042199;28;20048;-81
2021/01/08 01:44:06;;;;;;;17.55;8.85;;;;;;;;;;5031174;28;20449;-80
2021/01/08 01:46:33;;;;;;;18.42;8.77;;;2.50;99.90;;;;;;5031984;28;20037;-82
2021/01/08 01:48:58;;;;;;;16.20;8.48;;;;;;;;;;5023390;28;20045;-79
2021/01/08 01:51:25;;;;;;;14.45;8.00;;;;;;;;;;5028550;28;20067;-80
2021/01/08 01:53:51;;;;;;;17.05;8.98;;;2.50;99.90;;;;;;5035070;28;20030;-81
2021/01/08 01:56:17;;;;;;;15.60;8.82;;;;;;;;;;5036276;28;21521;-82
2021/01/08 01:58:43;;;;;;;17.25;8.75;;;;;;;;;;5027260;28;20064;-79
2021/01/08 02:01:12;;;;;;;19.15;8.25;;;;;;;;;;5031962;28;20052;-82
2021/01/08 02:03:45;;;;;;;16.77;8.38;;;2.40;99.90;;;;;;5032966;28;20128;-84
2021/01/08 02:06:13;;;;;;;15.00;7.97;;;2.50;99.90;;;;;;5028074;28;20057;-80
2021/01/08 02:08:42;;;;;;;16.05;8.27;;;2.50;99.90;;;;;;5030529;28;20042;-81
2021/01/08 02:11:11;;;;;;;13.50;7.75;;;2.50;99.90;;;;;;5027920;28;20046;-79
2021/01/08 02:14:02;;;;;;;14.05;7.55;;;3.30;99.90;;;;;;5031762;28;20046;-82
2021/01/08 02:16:37;;;;;;;17.80;9.02;;;2.40;99.90;;;;;;5037478;28;20507;-82
2021/01/08 02:19:07;;;;;;;17.17;8.10;;;2.40;99.90;;;;;;5029482;28;20492;-82
2021/01/08 02:21:49;;;;;;;14.18;7.97;;;2.40;99.90;;;;;;5028501;28;20045;-81
2021/01/08 02:24:30;;;;;;;17.35;7.88;;;2.40;99.90;;;;;;5028926;28;20049;-81
2021/01/08 02:26:57;;;;;;;16.38;8.32;;;2.50;99.90;;;;;;5030957;28;20041;-80
2021/01/08 02:29:24;;;;;;;14.40;8.25;;;2.50;99.90;;;;;;5036001;28;20039;-79
2021/01/08 02:31:50;;;;;;;14.18;7.72;;;2.50;99.90;;;;;;5034082;28;20519;-81
2021/01/08 02:34:17;;;;;;;14.68;8.70;;;2.50;99.90;;;;;;5035968;28;20041;-81
2021/01/08 02:36:44;;;;;;;15.05;7.82;;;2.50;99.90;;;;;;5034057;28;20037;-81
2021/01/08 02:39:13;;;;;;;15.35;7.65;;;2.50;99.90;;;;;;5046122;28;20037;-82
2021/01/08 02:41:43;;;;;;;16.38;8.38;;;2.50;99.90;;;;;;5038562;28;20029;-80
2021/01/08 02:44:17;;;;;;;14.25;7.80;;;2.50;99.90;;;;;;5045070;28;20033;-78
2021/01/08 02:46:43;;;;;;;16.85;8.30;;;2.50;99.90;;;;;;5038246;28;20064;-81
2021/01/08 02:49:09;;;;;;;14.00;7.25;;;2.40;99.90;;;;;;5027865;28;20037;-81
2021/01/08 02:51:35;;;;;;;15.95;7.88;;;2.50;99.90;;;;;;5032265;28;20036;-80
2021/01/08 02:54:02;;;;;;;14.43;7.97;;;2.50;99.90;;;;;;5032691;28;20044;-79
2021/01/08 02:56:40;;;;;;;15.27;7.65;;;2.40;99.90;;;;;;5030027;28;20029;-79
2021/01/08 02:59:08;;;;;;;17.63;7.97;;;2.40;99.90;;;;;;5029333;28;20095;-79
2021/01/08 03:01:35;;;;;;;15.32;7.95;;;2.40;99.90;;;;;;5018932;28;20561;-79
2021/01/08 03:04:00;;;;;;;16.02;8.15;;;2.50;99.90;;;;;;5011195;28;20033;-79
2021/01/08 03:06:29;;;;;;;13.65;7.57;;;3.40;99.90;;;;;;5033643;28;20030;-81
2021/01/08 03:08:59;;;;;;;13.95;7.70;;;2.40;99.90;;;;;;5034184;28;20364;-81
2021/01/08 03:11:25;;;;;;;12.48;7.00;;;2.40;99.90;;;;;;5031318;28;20037;-82
2021/01/08 03:13:53;;;;;;;13.27;7.10;;;2.50;99.90;;;;;;5033574;28;20030;-81
2021/01/08 03:16:21;;;;;;;13.40;6.85;;;2.50;99.90;;;;;;5029402;28;20072;-80
2021/01/08 03:18:46;;;;;;;13.27;7.57;;;2.50;99.90;;;;;;5032621;28;20064;-81
2021/01/08 03:21:12;;;;;;;11.27;6.70;;;2.50;99.90;;;;;;5043096;28;20041;-79
2021/01/08 03:23:37;;;;;;;11.43;6.57;;;2.60;99.90;;;;;;5012855;28;20037;-82
2021/01/08 03:26:03;;;;;;;13.02;7.35;;;2.50;99.90;;;;;;5032827;28;20048;-79
2021/01/08 03:28:29;;;;;;;12.07;7.03;;;2.50;99.90;;;;;;5015094;28;20112;-79
2021/01/08 03:30:54;;;;;;;11.55;6.40;;;2.60;99.90;;;;;;5030028;28;20066;-79
2021/01/08 03:33:20;;;;;;;12.27;6.80;;;2.60;99.90;;;;;;5034822;28;20052;-82
2021/01/08 03:35:46;;;;;;;13.68;6.95;;;2.60;99.90;;;;;;5031940;28;20502;-81
2021/01/08 03:38:12;;;;;;;13.63;7.35;;;2.60;99.90;;;;;;5030023;28;20051;-79
2021/01/08 03:40:40;;;;;;;12.38;6.40;;;2.60;99.90;;;;;;5031546;28;20069;-81
2021/01/08 03:43:07;;;;;;;12.10;6.68;;;2.60;99.90;;;;;;5031422;28;20391;-81
2021/01/08 03:45:33;;;;;;;13.40;7.15;;;2.60;99.90;;;;;;5028611;28;20048;-80
2021/01/08 03:47:59;;;;;;;12.90;7.97;;;2.60;99.90;;;;;;5048787;28;20041;-79
2021/01/08 03:50:24;;;;;;;14.80;7.15;;;3.40;99.90;;;;;;5012954;28;20499;-80
2021/01/08 03:52:50;;;;;;;11.60;7.03;;;2.60;99.90;;;;;;5029234;28;20034;-80
2021/01/08 03:55:16;;;;;;;11.00;6.53;;;2.70;99.90;;;;;;5014357;28;20430;-81
2021/01/08 03:57:41;;;;;;;12.85;6.82;;;2.80;99.90;;;;;;5026936;28;20069;-80
2021/01/08 04:00:08;;;;;;;10.57;6.68;;;2.90;99.90;;;;;;5032212;28;20099;-80
2021/01/08 04:02:33;;;;;;;12.70;7.53;;;2.90;99.90;;;;;;5034893;28;20073;-80
2021/01/08 04:05:00;;;;;;;10.25;6.70;;;2.80;99.90;;;;;;5032471;28;20053;-80
2021/01/08 04:07:25;;;;;;;11.05;6.80;;;2.80;99.90;;;;;;5027065;28;20033;-79
2021/01/08 04:09:51;;;;;;;15.05;7.72;;;2.90;99.90;;;;;;5040182;28;20036;-79
2021/01/08 04:12:16;;;;;;;11.77;5.93;;;2.90;99.90;;;;;;5026124;28;20238;-80
2021/01/08 04:14:42;;;;;;;11.27;6.88;;;2.90;99.90;;;;;;5035072;28;20064;-80
2021/01/08 04:17:08;;;;;;;11.55;7.07;;;2.90;99.90;;;;;;5035095;28;20863;-79
2021/01/08 04:19:34;;;;;;;14.07;8.00;;;2.90;99.90;;;;;;5028792;28;20056;-79
2021/01/08 04:21:59;;;;;;;13.50;7.60;;;3.10;99.90;;;;;;5015252;28;20530;-80
2021/01/08 04:24:25;;;;;;;13.80;7.70;;;2.90;99.90;;;;;;5031760;28;20038;-81
2021/01/08 04:26:50;;;;;;;13.45;7.88;;;2.80;99.90;;;;;;5019585;28;20042;-80
2021/01/08 04:29:16;;;;;;;11.55;7.38;;;2.90;99.90;;;;;;5040091;28;20045;-81
2021/01/08 04:31:42;;;;;;;11.60;7.63;;;2.90;99.90;;;;;;5033647;28;20060;-79
2021/01/08 04:34:08;;;;;;;12.35;7.28;;;2.90;99.90;;;;;;5031638;28;20049;-79
2021/01/08 04:36:35;;;;;;;13.57;6.90;;;2.80;99.90;;;;;;5034583;28;20239;-80
2021/01/08 04:39:00;;;;;;;15.30;8.20;;;2.90;99.90;;;;;;5030648;28;20647;-80
2021/01/08 04:41:28;;;;;;;11.90;7.05;;;2.90;99.90;;;;;;5032764;28;20123;-79
2021/01/08 04:43:54;;;;;;;12.50;7.47;;;2.90;99.90;;;;;;5033275;28;20037;-79
2021/01/08 04:46:23;;;;;;;12.18;7.35;;;2.80;99.90;;;;;;5035268;28;20029;-79
2021/01/08 04:48:52;;;;;;;12.75;7.15;;;2.80;99.90;;;;;;5039751;28;20053;-80
2021/01/08 04:51:19;;;;;;;13.00;7.65;;;2.80;99.90;;;;;;5029425;28;20053;-80
2021/01/08 04:53:45;;;;;;;12.95;7.97;;;2.80;99.90;;;;;;5015375;28;20103;-80
2021/01/08 04:56:14;;;;;;;12.38;7.68;;;2.70;99.90;;;;;;5028507;28;20033;-80
2021/01/08 04:58:41;;;;;;;13.35;8.00;;;2.70;99.90;;;;;;5029466;28;20033;-79
2021/01/08 05:01:07;;;;;;;14.73;8.45;;;2.70;99.90;;;;;;5010650;28;20052;-79
2021/01/08 05:03:33;;;;;;;13.07;7.55;;;2.70;99.90;;;;;;5033028;28;20120;-80
2021/01/08 05:05:59;;;;;;;13.57;8.48;;;2.70;99.90;;;;;;5011792;28;20055;-79
2021/01/08 05:08:25;;;;;;;15.25;8.13;;;2.70;99.90;;;;;;5035160;28;20121;-80
2021/01/08 05:10:51;;;;;;;14.88;8.43;;;2.60;99.90;;;;;;5011558;28;20041;-79
2021/01/08 05:13:17;;;;;;;14.55;8.52;;;2.60;99.90;;;;;;5033172;28;20056;-80
2021/01/08 05:15:51;;;;;;;15.15;8.55;;;2.60;99.90;;;;;;5029583;28;20037;-80
2021/01/08 05:18:17;;;;;;;15.05;8.13;;;2.50;99.90;;;;;;5026736;28;20060;-79
2021/01/08 05:20:42;;;;;;;17.42;8.70;;;2.60;99.90;;;;;;5031803;28;20018;-79
2021/01/08 05:23:10;;;;;;;16.30;8.27;;;2.60;99.90;;;;;;5029316;28;20037;-81
2021/01/08 05:25:36;;;;;;;18.48;8.60;;;2.60;99.90;;;;;;5037914;28;20559;-81
2021/01/08 05:28:05;;;;;;;13.88;8.02;;;2.60;99.90;;;;;;5030348;28;20033;-78
2021/01/08 05:30:31;;;;;;;12.93;7.63;;;2.60;99.90;;;;;;5031143;28;20049;-78
2021/01/08 05:33:04;;;;;;;13.98;7.70;;;2.80;99.90;;;;;;5032755;28;20069;-80
2021/01/08 05:35:33;;;;;;;16.75;8.27;;;2.80;99.90;;;;;;5030253;28;20526;-80
2021/01/08 05:38:05;;;;;;;14.15;7.93;;;2.80;99.90;;;;;;5030123;28;20057;-78
2021/01/08 05:40:32;;;;;;;14.50;8.50;;;2.80;99.90;;;;;;5030426;28;20043;-80
2021/01/08 05:43:00;;;;;;;16.55;9.00;;;2.70;99.90;;;;;;5031488;28;20538;-79
2021/01/08 05:45:26;;;;;;;15.43;8.80;;;2.60;99.90;;;;;;5042262;28;20514;-81
2021/01/08 05:47:54;;;;;;;17.33;9.18;;;2.50;99.90;;;;;;5034614;28;20044;-79
2021/01/08 05:50:24;;;;;;;16.98;7.97;;;2.50;99.90;;;;;;5005638;28;20132;-79
2021/01/08 05:53:07;;;;;;;12.25;7.03;;;2.50;99.90;;;;;;5024873;28;20049;-78
2021/01/08 05:55:40;;;;;;;12.77;6.88;;;2.60;99.90;;;;;;5027379;28;20503;-80
2021/01/08 05:58:23;;;;;;;13.13;7.55;;;2.70;99.90;;;;;;5031906;28;20123;-80
2021/01/08 06:01:01;;;;;;;16.27;7.75;;;2.70;99.90;;;;;;5026710;28;20041;-80
2021/01/08 06:03:28;;;;;;;11.60;7.00;;;2.70;99.90;;;;;;5030499;28;20502;-79
2021/01/08 06:05:58;;;;;;;12.27;7.32;;;2.60;99.90;;;;;;5031052;28;21386;-80
2021/01/08 06:08:36;;;;;;;15.13;7.72;;;2.70;99.90;;;;;;5031562;28;20586;-79
2021/01/08 06:11:06;;;;;;;13.38;7.20;;;2.60;99.90;;;;;;5043023;28;20033;-81
2021/01/08 06:13:33;;;;;;;13.70;7.05;;;2.70;99.90;;;;;;5032577;28;20033;-80
2021/01/08 06:16:01;;;;;;;12.55;6.85;;;2.80;99.90;;;;;;5032510;28;20049;-80
2021/01/08 06:18:28;;;;;;;15.07;7.28;;;2.80;99.90;;;;;;5032114;28;20028;-79
2021/01/08 06:21:02;;;;;;;12.85;7.60;;;2.70;99.90;;;;;;5037596;28;20495;-80
2021/01/08 06:23:51;;;;;;;12.98;7.85;;;2.60;99.90;;;;;;5028555;28;20041;-80
2021/01/08 06:26:17;;;;;;;31.60;12.88;;;2.60;99.90;;;;;;5034029;28;20033;-79
2021/01/08 06:28:49;;;;;;;17.10;7.82;;;2.60;99.90;;;;;;5051548;28;20042;-82
2021/01/08 06:31:21;;;;;;;17.38;7.55;;;2.60;99.90;;;;;;5033977;28;20025;-81
2021/01/08 06:33:55;;;;;;;14.82;8.15;;;2.50;99.90;;;;;;5027975;28;20033;-80
2021/01/08 06:36:32;;;;;;;13.27;7.50;;;2.50;99.90;;;;;;5037960;28;20021;-82
2021/01/08 06:39:11;;;;;;;20.17;7.88;;;2.40;99.90;;;;;;5031883;28;20136;-81
2021/01/08 06:41:39;;;;;;;14.82;8.00;;;2.40;99.90;;;;;;5048631;28;20025;-81
2021/01/08 06:44:06;;;;;;;14.45;7.82;;;2.40;99.90;;;;;;5032592;28;20033;-80
2021/01/08 06:46:31;;;;;;;14.40;8.07;;;2.40;99.90;;;;;;5033549;28;20041;-79
2021/01/08 06:49:04;;;;;;;15.55;8.60;;;2.40;99.90;;;;;;5032254;28;20045;-81
2021/01/08 06:51:35;;;;;;;14.32;8.70;;;2.40;99.90;;;;;;5029993;28;20034;-80
2021/01/08 06:54:10;;;;;;;13.32;7.45;;;2.30;99.90;;;;;;5021911;28;20080;-81
2021/01/08 06:56:40;;;;;;;14.38;7.70;;;2.40;99.90;;;;;;5028957;28;20033;-82
2021/01/08 06:59:08;;;;;;;14.18;8.10;;;2.40;99.90;;;;;;5031248;28;20045;-80
2021/01/08 07:01:52;;;;;;;17.17;8.30;;;2.20;99.90;;;;;;5027912;28;20109;-81
2021/01/08 07:04:39;;;;;;;14.55;7.75;;;2.30;99.90;;;;;;5022776;28;20064;-81
2021/01/08 07:07:13;;;;;;;14.50;8.32;;;2.40;99.90;;;;;;5034237;28;20037;-80
2021/01/08 07:09:40;;;;;;;16.52;9.13;;;2.40;99.90;;;;;;5023229;28;20517;-81
2021/01/08 07:12:09;;;;;;;16.45;8.00;;;2.20;99.90;;;;;;5042662;28;20025;-81
2021/01/08 07:14:35;;;;;;;13.38;7.15;;;2.20;99.90;;;;;;5032627;28;20045;-81
2021/01/08 07:17:06;;;;;;;14.63;7.80;;;2.30;99.90;;;;;;5034674;28;20514;-80
2021/01/08 07:19:33;;;;;;;13.55;7.57;;;2.30;99.90;;;;;;5034887;28;20045;-80
2021/01/08 07:22:01;;;;;;;15.05;7.97;;;2.20;99.90;;;;;;5029088;28;20115;-80
2021/01/08 07:24:34;;;;;;;15.80;7.95;;;2.10;99.90;;;;;;5029490;28;20032;-82
2021/01/08 07:27:34;;;;;;;14.20;7.53;;;2.10;99.90;;;;;;5028616;28;20549;-79
2021/01/08 07:30:08;;;;;;;14.77;8.10;;;2.10;99.90;;;;;;5028192;28;20032;-79
2021/01/08 07:32:48;;;;;;;16.48;8.77;;;2.10;99.90;;;;;;5028712;28;20029;-78
2021/01/08 07:35:25;;;;;;;14.65;8.20;;;2.20;99.90;;;;;;5030470;28;20061;-81
2021/01/08 07:38:02;;;;;;;14.45;8.32;;;2.20;99.90;;;;;;5027774;28;20040;-80
2021/01/08 07:40:48;;;;;;;13.95;8.55;;;2.20;99.90;;;;;;5019766;28;21320;-80
2021/01/08 07:43:14;;;;;;;13.43;7.97;;;2.20;99.90;;;;;;5018930;28;20059;-80
2021/01/08 07:45:53;;;;;;;15.98;7.70;;;2.20;99.90;;;;;;5020636;28;20026;-80
2021/01/08 07:48:26;;;;;;;12.10;7.05;;;2.30;99.90;;;;;;5030619;28;20090;-80
2021/01/08 07:50:56;;;;;;;14.20;7.60;;;2.40;99.90;;;;;;5026205;28;20044;-80
2021/01/08 07:53:40;;;;;;;16.10;8.45;;;2.40;99.90;;;;;;5029152;28;20033;-80
2021/01/08 07:56:07;;;;;;;14.43;8.00;;;2.30;99.90;;;;;;5042884;28;20557;-79
2021/01/08 07:58:33;;;;;;;16.98;8.23;;;3.60;99.90;;;;;;5028073;28;20040;-80
2021/01/08 08:00:59;;;;;;;13.23;7.85;;;2.40;99.90;;;;;;5027236;28;20335;-79
2021/01/08 08:03:25;;;;;;;14.35;7.85;;;2.40;99.90;;;;;;5032358;28;20044;-79
2021/01/08 08:05:54;;;;;;;16.30;8.07;;;2.40;99.90;;;;;;4989541;28;20407;-78
2021/01/08 08:08:20;;;;;;;15.88;8.05;;;2.30;99.90;;;;;;5025218;28;20029;-81
2021/01/08 08:10:45;;;;;;;16.05;7.95;;;2.30;99.90;;;;;;5030720;28;20116;-80
2021/01/08 08:13:15;;;;;;;13.88;7.75;;;2.30;99.90;;;;;;5022955;28;20056;-79
2021/01/08 08:15:48;;;;;;;15.45;8.40;;;2.40;99.90;;;;;;5027912;28;20038;-79
2021/01/08 08:18:14;;;;;;;16.13;8.38;;;2.40;99.90;;;;;;5042633;28;20096;-80
2021/01/08 08:20:40;;;;;;;14.80;8.73;;;2.30;99.90;;;;;;5040991;28;20061;-80
2021/01/08 08:23:16;;;;;;;18.38;8.82;;;2.40;99.90;;;;;;5034375;28;20415;-79
2021/01/08 08:25:43;;;;;;;15.82;9.07;;;2.30;99.90;;;;;;5029355;28;20053;-80
2021/01/08 08:28:09;;;;;;;14.13;7.68;;;2.20;99.90;;;;;;5039156;28;20041;-78
2021/01/08 08:30:34;;;;;;;13.38;8.18;;;2.30;99.90;;;;;;5027501;28;20136;-81
2021/01/08 08:33:03;;;;;;;14.38;8.30;;;2.30;99.90;;;;;;5030277;28;20029;-80
2021/01/08 08:35:28;;;;;;;17.40;8.48;;;2.30;99.90;;;;;;5030745;28;20048;-78
2021/01/08 08:37:56;;;;;;;15.30;7.97;;;2.30;99.90;;;;;;5032636;28;20033;-79
2021/01/08 08:40:27;;;;;;;15.48;8.20;;;2.30;99.90;;;;;;5024815;28;20410;-82
2021/01/08 08:42:55;;;;;;;;;;;2.40;99.90;;;;;;5030968;28;20034;-79
2021/01/08 08:45:25;;;;;;;13.60;6.90;;;2.50;99.90;;;;;;5030435;28;19920;-80
2021/01/08 08:47:53;;;;;;;13.35;6.95;;;2.50;99.90;;;;;;5021340;28;20034;-81
2021/01/08 08:50:19;;;;;;;15.80;7.57;;;2.50;99.90;;;;;;5028581;28;20029;-81
2021/01/08 08:52:45;;;;;;;14.05;8.63;;;2.50;99.90;;;;;;5032454;28;20068;-80
2021/01/08 08:55:32;;;;;;;16.30;8.20;;;2.70;99.60;;;;;;5029366;28;20103;-81
2021/01/08 08:58:05;;;;;;;14.82;7.97;;;2.60;99.70;;;;;;5022404;28;20092;-80
2021/01/08 09:00:36;;;;;;;17.02;8.88;;;2.60;99.90;;;;;;5049370;28;20116;-80
2021/01/08 09:03:18;;;;;;;17.17;8.80;;;2.40;99.90;;;;;;5027603;28;20478;-81
2021/01/08 09:05:45;;;;;;;15.40;7.90;;;;;;;;;;5028868;28;20043;-81
2021/01/08 09:08:28;;;;;;;15.70;9.32;;;2.40;99.90;;;;;;5030334;28;20422;-79
2021/01/08 09:11:25;;;;;;;17.75;9.27;;;2.40;99.90;;;;;;5029379;28;20044;-79
2021/01/08 09:14:03;;;;;;;18.40;9.27;;;2.40;99.90;;;;;;5029372;28;20384;-79
2021/01/08 09:16:40;;;;;;;18.33;9.75;;;2.30;99.90;;;;;;5028690;28;20058;-80
2021/01/08 09:19:31;;;;;;;22.08;10.88;;;2.30;99.90;;;;;;5028510;28;20038;-79
2021/01/08 09:21:57;;;;;;;19.33;9.80;;;2.30;99.90;;;;;;5005450;28;20487;-80
2021/01/08 09:24:32;;;;;;;18.40;9.25;;;2.30;99.90;;;;;;5029960;28;20545;-80
2021/01/08 09:27:03;;;;;;;25.52;10.85;;;2.40;99.90;;;;;;5027939;28;20033;-81
2021/01/08 09:29:33;;;;;;;17.65;9.15;;;2.50;99.90;;;;;;5029449;28;20036;-79
2021/01/08 09:32:01;;;;;;;18.52;9.60;;;2.40;99.80;;;;;;5018448;28;20037;-80
2021/01/08 09:34:27;;;;;;;17.50;9.02;;;2.50;99.90;;;;;;5024439;28;20045;-81
2021/01/08 09:36:54;;;;;;;17.52;9.93;;;2.60;99.70;;;;;;5032556;28;20353;-80
2021/01/08 09:39:22;;;;;;;20.65;10.27;;;2.60;99.90;;;;;;5030924;28;20095;-80
2021/01/08 09:41:59;;;;;;;19.80;9.43;;;2.70;99.60;;;;;;5027543;28;20046;-81
2021/01/08 09:44:36;;;;;;;20.98;10.10;;;2.70;99.70;;;;;;5033618;28;20124;-80
2021/01/08 09:47:06;;;;;;;15.32;8.02;;;2.70;99.80;;;;;;5028237;28;20033;-80
2021/01/08 09:49:47;;;;;;;15.48;8.18;;;2.80;99.10;;;;;;5026299;28;20048;-79
2021/01/08 09:52:14;;;;;;;16.25;8.57;;;2.80;98.90;;;;;;5024069;28;20478;-80
2021/01/08 09:54:48;;;;;;;15.10;8.00;;;2.60;99.20;;;;;;5026480;28;20477;-78
2021/01/08 09:57:27;;;;;;;15.15;8.10;;;2.80;98.60;;;;;;5024428;28;20042;-78
2021/01/08 09:59:57;;;;;;;18.30;9.68;;;2.60;98.60;;;;;;5023464;28;20045;-78
2021/01/08 10:02:46;;;;;;;15.90;8.38;;;2.80;98.60;;;;;;5022248;28;20042;-78
2021/01/08 10:05:34;;;;;;;17.23;9.02;;;2.70;99.80;;;;;;5021911;28;20041;-81
2021/01/08 10:08:02;;;;;;;14.88;8.32;;;2.70;99.90;;;;;;5041607;28;20029;-79
2021/01/08 10:10:28;;;;;;;17.48;8.63;;;;;;;;;;5027793;28;20505;-78
2021/01/08 10:12:57;;;;;;;17.50;7.90;;;;;;;;;;5032198;28;20053;-78
2021/01/08 10:15:37;;;;;;;19.65;8.98;;;2.50;99.90;;;;;;5028653;28;20037;-77
2021/01/08 10:18:11;;;;;;;20.65;10.23;;;2.60;99.60;;;;;;5028021;28;20052;-77
2021/01/08 10:20:54;;;;;;;17.50;8.77;;;2.50;99.80;;;;;;5023103;28;20119;-78
2021/01/08 10:23:22;;;;;;;18.30;9.55;;;2.50;99.90;;;;;;5022361;28;20037;-78
2021/01/08 10:25:48;;;;;;;17.45;10.02;;;;;;;;;;5031255;28;20044;-77
2021/01/08 10:28:23;;;;;;;17.23;8.77;;;2.30;99.80;;;;;;5024738;28;20108;-77
2021/01/08 10:30:51;;;;;;;17.75;9.07;;;2.30;99.90;;;;;;5027468;28;20052;-80
2021/01/08 10:33:17;;;;;;;15.95;8.95;;;2.40;99.50;;;;;;5035258;28;20502;-78
2021/01/08 10:35:51;;;;;;;14.85;8.13;;;2.50;99.90;;;;;;5024420;28;20037;-79
2021/01/08 10:38:17;;;;;;;19.63;9.45;;;2.50;99.80;;;;;;5044041;28;20067;-80
2021/01/08 10:40:43;;;;;;;16.77;8.68;;;2.50;99.60;;;;;;5029575;28;20041;-79
2021/01/08 10:43:10;;;;;;;14.93;8.57;;;2.60;99.70;;;;;;5034316;28;20056;-79
2021/01/08 10:45:39;;;;;;;19.10;8.65;;;4.00;99.40;;;;;;5029669;28;20395;-77
2021/01/08 10:48:06;;;;;;;17.73;8.95;;;2.70;99.30;;;;;;5023241;28;20103;-78
2021/01/08 10:50:32;;;;;;;16.77;9.02;;;2.70;98.50;;;;;;5034501;28;20045;-77
2021/01/08 10:52:59;;;;;;;16.13;8.75;;;2.70;99.00;;;;;;5025414;28;20041;-77
2021/01/08 10:55:25;;;;;;;18.33;9.50;;;2.70;99.20;;;;;;5027458;28;20504;-78
2021/01/08 10:57:51;;;;;;;17.75;9.50;;;;;;;;;;5029440;28;20068;-78
2021/01/08 11:00:19;;;;;;;15.63;8.32;;;2.80;98.60;;;;;;5025344;28;20080;-77
2021/01/08 11:02:44;;;;;;;19.35;9.13;;;2.90;98.80;;;;;;5029068;28;20029;-78
2021/01/08 11:05:11;;;;;;;17.90;8.73;;;2.90;99.20;;;;;;5028062;28;20065;-79
2021/01/08 11:07:37;;;;;;;18.52;9.82;;;2.90;98.70;;;;;;5032049;28;20080;-78
2021/01/08 11:10:05;;;;;;;17.35;8.70;;;3.00;98.80;;;;;;5020448;28;20085;-79
2021/01/08 11:12:31;;;;;;;15.35;8.52;;;3.00;98.30;;;;;;5028035;28;20440;-78
2021/01/08 11:14:58;;;;;;;19.83;8.60;;;3.10;97.70;;;;;;5027631;28;20569;-78
2021/01/08 11:17:24;;;;;;;14.63;8.90;;;3.10;97.30;;;;;;5029792;28;20044;-78
2021/01/08 11:19:49;;;;;;;14.10;7.57;;;3.10;97.50;;;;;;5041185;28;20041;-80
2021/01/08 11:22:15;;;;;;;19.27;8.55;;;3.10;98.00;;;;;;5033231;28;20491;-79
2021/01/08 11:24:42;;;;;;;18.77;8.13;;;3.20;97.10;;;;;;5031944;28;20125;-81
2021/01/08 11:27:07;;;;;;;16.98;9.57;;;3.30;97.50;;;;;;5025913;28;20132;-81
2021/01/08 11:29:33;;;;;;;15.90;8.93;;;;;;;;;;5011959;28;20045;-80
2021/01/08 11:31:59;;;;;;;16.30;9.30;;;3.10;98.00;;;;;;5029837;28;20051;-80
2021/01/08 11:34:25;;;;;;;20.23;9.07;;;3.00;99.10;;;;;;5015813;28;20045;-79
2021/01/08 11:36:57;;;;;;;16.70;9.23;;;3.10;98.60;;;;;;5028895;28;20049;-82
2021/01/08 11:39:23;;;;;;;20.30;9.68;;;3.10;98.00;;;;;;5030526;28;20151;-81
2021/01/08 11:41:54;;;;;;;17.42;9.27;;;3.10;98.40;;;;;;5023945;28;20042;-79
2021/01/08 11:44:20;;;;;;;19.35;9.57;;;3.00;98.50;;;;;;5024326;28;20089;-82
2021/01/08 11:46:48;;;;;;;14.95;7.95;;;2.90;98.80;;;;;;5028651;28;20113;-80
2021/01/08 11:49:13;;;;;;;19.02;9.70;;;3.00;98.60;;;;;;5024347;28;20128;-79
2021/01/08 11:51:39;;;;;;;16.38;8.40;;;3.00;98.50;;;;;;5026489;28;20129;-83
2021/01/08 11:54:05;;;;;;;17.58;10.10;;;3.00;98.80;;;;;;5026498;28;20096;-81
2021/01/08 11:56:31;;;;;;;17.50;9.27;;;3.10;98.50;;;;;;5025160;28;20091;-81
2021/01/08 11:58:57;;;;;;;16.05;9.07;;;2.90;98.80;;;;;;5024257;28;20118;-79
2021/01/08 12:01:27;;;;;;;18.08;9.50;;;3.80;99.50;;;;;;5030543;28;20503;-79
2021/01/08 12:03:53;;;;;;;19.70;8.38;;;2.90;99.00;;;;;;5031327;28;20416;-80
2021/01/08 12:06:27;;;;;;;18.38;10.35;;;3.00;98.70;;;;;;5023286;28;20036;-80
2021/01/08 12:08:55;;;;;;;19.33;9.77;;;3.10;98.70;;;;;;5027477;28;20040;-84
2021/01/08 12:11:20;;;;;;;17.92;9.35;;;3.10;98.60;;;;;;5047231;28;20123;-79
2021/01/08 12:13:46;;;;;;;19.40;10.25;;;3.20;98.20;;;;;;5029768;28;20073;-80
2021/01/08 12:16:12;;;;;;;16.80;8.00;;;;;;;;;;5019526;28;20045;-83
2021/01/08 12:18:38;;;;;;;14.43;8.57;;;3.10;99.20;;;;;;5016608;28;20072;-81
2021/01/08 12:21:07;;;;;;;18.17;8.68;;;3.10;98.80;;;;;;5000571;28;20521;-80
2021/01/08 12:23:34;;;;;;;17.02;8.80;;;3.20;99.10;;;;;;5018124;28;20041;-80
2021/01/08 12:26:00;;;;;;;19.00;9.27;;;3.20;98.60;;;;;;5025219;28;20034;-82
2021/01/08 12:28:26;;;;;;;15.90;9.23;;;3.80;98.80;;;;;;5036131;28;20049;-79
2021/01/08 12:30:51;;;;;;;16.13;8.55;;;2.60;98.70;;;;;;5039871;28;20045;-81
2021/01/08 12:33:17;;;;;;;18.88;8.60;;;3.10;99.50;;;;;;5024772;28;20053;-81
2021/01/08 12:35:43;;;;;;;17.13;9.10;;;;;;;;;;5009004;28;20420;-78
2021/01/08 12:38:11;;;;;;;17.88;9.57;;;3.20;98.90;;;;;;5026480;28;20584;-79
2021/01/08 12:40:37;;;;;;;17.17;8.70;;;;;;;;;;5009666;28;20105;-81
2021/01/08 12:43:04;;;;;;;18.88;8.35;;;;;;;;;;5030959;28;20057;-81
2021/01/08 12:45:30;;;;;;;18.30;9.50;;;;;;;;;;5027453;28;20124;-81
2021/01/08 12:47:56;;;;;;;20.17;9.45;;;;;;;;;;5026432;28;20054;-79
2021/01/08 12:50:22;;;;;;;20.02;9.80;;;;;;;;;;5030478;28;20072;-81
2021/01/08 12:52:49;;;;;;;23.90;12.20;;;2.90;99.90;;;;;;5029846;28;20041;-78
2021/01/08 12:55:15;;;;;;;18.75;10.05;;;2.90;99.90;;;;;;5031079;28;20041;-79
2021/01/08 12:57:41;;;;;;;15.88;9.20;;;2.90;99.90;;;;;;5032662;28;20061;-80
2021/01/08 13:00:07;;;;;;;17.02;9.70;;;3.50;99.90;;;;;;5028620;28;20073;-78
2021/01/08 13:02:33;;;;;;;17.40;9.77;;;2.80;99.90;;;;;;5026796;28;20037;-79
2021/01/08 13:04:59;;;;;;;19.02;10.52;;;;;;;;;;5034447;28;20087;-79
2021/01/08 13:07:25;;;;;;;19.25;10.95;;;2.70;99.90;;;;;;5027030;28;20036;-80